Terminal Aerodrome Forecast
Issued by NWS Raleigh/Durham, NC

Home | Current Version | Previous Version | Text Only | Print | Product List | Glossary On
Versions: 1 2 3 4 5 6 7 8 9 10 11 12 13 14 15 16 17 18 19 20 21 22 23 24 25
000
FTUS42 KRAH 240530
TAFFAY
TAF
KFAY 240530Z 2406/2506 34011KT P6SM OVC015
     FM241100 30007KT P6SM BKN050
     FM241500 31012G22KT P6SM SCT035 SCT250
     FM241800 31015G28KT P6SM SCT250
     FM250000 29005KT P6SM SKC=

USA.gov is the U.S. government's official web portal to all federal, state and local government web resources and services.